sensor_id;sensor_type;location;lat;lon;timestamp;pressure;altitude;pressure_sealevel;temperature;humidity
53506;BME280;39388;50.936;6.848;2023-02-16T00:01:18;101948.38;;;5.43;76.40
53506;BME280;39388;50.936;6.848;2023-02-16T00:03:50;101938.66;;;5.32;76.97
53506;BME280;39388;50.936;6.848;2023-02-16T00:06:22;101935.19;;;5.32;76.63
53506;BME280;39388;50.936;6.848;2023-02-16T00:08:54;101935.88;;;5.28;76.66
53506;BME280;39388;50.936;6.848;2023-02-16T00:11:33;101934.91;;;5.24;76.82
53506;BME280;39388;50.936;6.848;2023-02-16T00:14:23;101933.81;;;5.17;77.04
53506;BME280;39388;50.936;6.848;2023-02-16T00:16:56;101937.44;;;5.22;76.59
53506;BME280;39388;50.936;6.848;2023-02-16T00:19:35;101937.25;;;5.18;76.33
53506;BME280;39388;50.936;6.848;2023-02-16T00:22:06;101931.91;;;5.12;77.06
53506;BME280;39388;50.936;6.848;2023-02-16T00:24:37;101939.75;;;5.16;77.14
53506;BME280;39388;50.936;6.848;2023-02-16T00:27:11;101943.00;;;5.12;77.42
53506;BME280;39388;50.936;6.848;2023-02-16T00:29:43;101940.38;;;5.11;77.21
53506;BME280;39388;50.936;6.848;2023-02-16T00:32:13;101937.63;;;5.04;77.27
53506;BME280;39388;50.936;6.848;2023-02-16T00:34:43;101940.06;;;5.01;77.46
53506;BME280;39388;50.936;6.848;2023-02-16T00:37:14;101943.53;;;5.03;77.45
53506;BME280;39388;50.936;6.848;2023-02-16T00:39:45;101936.41;;;4.95;77.60
53506;BME280;39388;50.936;6.848;2023-02-16T00:42:21;101931.22;;;4.93;77.58
53506;BME280;39388;50.936;6.848;2023-02-16T00:44:55;101943.31;;;4.97;77.77
53506;BME280;39388;50.936;6.848;2023-02-16T00:47:34;101936.22;;;4.90;77.42
53506;BME280;39388;50.936;6.848;2023-02-16T00:50:23;101938.72;;;4.88;77.85
53506;BME280;39388;50.936;6.848;2023-02-16T00:52:55;101933.44;;;4.84;77.76
53506;BME280;39388;50.936;6.848;2023-02-16T00:55:31;101934.88;;;4.77;77.98
53506;BME280;39388;50.936;6.848;2023-02-16T00:58:22;101928.66;;;4.70;77.78
53506;BME280;39388;50.936;6.848;2023-02-16T01:01:02;101931.16;;;4.69;77.81
53506;BME280;39388;50.936;6.848;2023-02-16T01:03:35;101928.47;;;4.66;78.05
53506;BME280;39388;50.936;6.848;2023-02-16T01:06:06;101928.41;;;4.64;77.75
53506;BME280;39388;50.936;6.848;2023-02-16T01:09:08;101923.19;;;4.61;77.91
53506;BME280;39388;50.936;6.848;2023-02-16T01:11:59;101922.25;;;4.59;78.20
53506;BME280;39388;50.936;6.848;2023-02-16T01:14:31;101919.47;;;4.53;77.39
53506;BME280;39388;50.936;6.848;2023-02-16T01:17:02;101913.38;;;4.49;77.66
53506;BME280;39388;50.936;6.848;2023-02-16T01:19:32;101916.72;;;4.48;77.85
53506;BME280;39388;50.936;6.848;2023-02-16T01:22:03;101908.06;;;4.44;78.09
53506;BME280;39388;50.936;6.848;2023-02-16T01:24:33;101910.69;;;4.46;78.33
53506;BME280;39388;50.936;6.848;2023-02-16T01:27:03;101907.19;;;4.44;78.15
53506;BME280;39388;50.936;6.848;2023-02-16T01:29:34;101903.66;;;4.40;78.34
53506;BME280;39388;50.936;6.848;2023-02-16T01:32:04;101912.88;;;4.37;77.81
53506;BME280;39388;50.936;6.848;2023-02-16T01:34:34;101901.72;;;4.35;78.46
53506;BME280;39388;50.936;6.848;2023-02-16T01:37:05;101898.25;;;4.33;78.33
53506;BME280;39388;50.936;6.848;2023-02-16T01:39:35;101896.19;;;4.24;78.61
53506;BME280;39388;50.936;6.848;2023-02-16T01:47:33;101909.63;;;4.20;78.80
53506;BME280;39388;50.936;6.848;2023-02-16T01:50:55;101913.81;;;4.18;78.94
53506;BME280;39388;50.936;6.848;2023-02-16T01:53:14;101909.31;;;4.12;78.79
53506;BME280;39388;50.936;6.848;2023-02-16T01:55:54;101897.97;;;4.05;78.82
53506;BME280;39388;50.936;6.848;2023-02-16T01:58:35;101906.72;;;4.10;78.77
53506;BME280;39388;50.936;6.848;2023-02-16T02:01:38;101905.84;;;4.10;78.75
53506;BME280;39388;50.936;6.848;2023-02-16T02:04:23;101895.38;;;4.04;78.95
53506;BME280;39388;50.936;6.848;2023-02-16T02:07:36;101884.06;;;3.97;78.99
53506;BME280;39388;50.936;6.848;2023-02-16T02:10:44;101882.16;;;3.93;78.59
53506;BME280;39388;50.936;6.848;2023-02-16T02:13:23;101886.34;;;3.91;78.90
53506;BME280;39388;50.936;6.848;2023-02-16T02:15:59;101897.63;;;3.96;79.00
53506;BME280;39388;50.936;6.848;2023-02-16T02:18:30;101888.84;;;3.89;78.81
53506;BME280;39388;50.936;6.848;2023-02-16T02:30:17;101893.81;;;3.86;79.32
53506;BME280;39388;50.936;6.848;2023-02-16T02:36:08;101885.16;;;3.82;79.29
53506;BME280;39388;50.936;6.848;2023-02-16T02:41:36;101862.53;;;3.71;79.38
53506;BME280;39388;50.936;6.848;2023-02-16T02:44:28;101868.53;;;3.71;79.18
53506;BME280;39388;50.936;6.848;2023-02-16T02:46:58;101877.19;;;3.75;79.38
53506;BME280;39388;50.936;6.848;2023-02-16T02:49:29;101869.34;;;3.70;79.52
53506;BME280;39388;50.936;6.848;2023-02-16T02:51:59;101882.22;;;3.73;79.26
53506;BME280;39388;50.936;6.848;2023-02-16T02:54:36;101887.34;;;3.73;79.45
53506;BME280;39388;50.936;6.848;2023-02-16T02:57:40;101880.50;;;3.72;79.49
53506;BME280;39388;50.936;6.848;2023-02-16T03:00:40;101873.50;;;3.68;79.28
53506;BME280;39388;50.936;6.848;2023-02-16T03:03:39;101873.44;;;3.66;79.42
53506;BME280;39388;50.936;6.848;2023-02-16T03:06:08;101870.09;;;3.67;79.49
53506;BME280;39388;50.936;6.848;2023-02-16T03:08:41;101864.06;;;3.65;79.38
53506;BME280;39388;50.936;6.848;2023-02-16T03:11:23;101864.84;;;3.64;78.95
53506;BME280;39388;50.936;6.848;2023-02-16T03:16:56;101866.28;;;3.58;79.00
53506;BME280;39388;50.936;6.848;2023-02-16T03:19:48;101858.34;;;3.51;79.15
53506;BME280;39388;50.936;6.848;2023-02-16T03:22:38;101844.41;;;3.43;79.32
53506;BME280;39388;50.936;6.848;2023-02-16T03:25:31;101846.31;;;3.47;79.55
53506;BME280;39388;50.936;6.848;2023-02-16T03:28:26;101840.25;;;3.45;79.17
53506;BME280;39388;50.936;6.848;2023-02-16T03:31:20;101829.75;;;3.37;79.59
53506;BME280;39388;50.936;6.848;2023-02-16T03:33:52;101835.78;;;3.40;79.53
53506;BME280;39388;50.936;6.848;2023-02-16T03:36:26;101840.03;;;3.41;79.69
53506;BME280;39388;50.936;6.848;2023-02-16T03:38:57;101826.84;;;3.30;79.62
53506;BME280;39388;50.936;6.848;2023-02-16T03:41:31;101839.78;;;3.34;80.16
53506;BME280;39388;50.936;6.848;2023-02-16T03:44:02;101832.09;;;3.33;80.13
53506;BME280;39388;50.936;6.848;2023-02-16T03:46:33;101821.69;;;3.28;80.13
53506;BME280;39388;50.936;6.848;2023-02-16T03:49:03;101800.84;;;3.17;80.45
53506;BME280;39388;50.936;6.848;2023-02-16T03:51:34;101832.09;;;3.33;80.41
53506;BME280;39388;50.936;6.848;2023-02-16T03:54:04;101832.00;;;3.31;80.33
53506;BME280;39388;50.936;6.848;2023-02-16T03:56:35;101836.97;;;3.28;80.51
53506;BME280;39388;50.936;6.848;2023-02-16T03:59:05;101834.50;;;3.30;80.50
53506;BME280;39388;50.936;6.848;2023-02-16T04:01:36;101836.13;;;3.28;80.45
53506;BME280;39388;50.936;6.848;2023-02-16T04:04:06;101824.78;;;3.21;80.42
53506;BME280;39388;50.936;6.848;2023-02-16T04:06:36;101830.94;;;3.26;80.37
53506;BME280;39388;50.936;6.848;2023-02-16T04:09:07;101834.31;;;3.25;80.62
53506;BME280;39388;50.936;6.848;2023-02-16T04:11:37;101835.97;;;3.25;80.67
53506;BME280;39388;50.936;6.848;2023-02-16T04:14:26;101830.63;;;3.18;80.40
53506;BME280;39388;50.936;6.848;2023-02-16T04:16:56;101828.78;;;3.16;80.60
53506;BME280;39388;50.936;6.848;2023-02-16T04:19:27;101839.06;;;3.17;80.91
53506;BME280;39388;50.936;6.848;2023-02-16T04:21:57;101835.50;;;3.14;80.92
53506;BME280;39388;50.936;6.848;2023-02-16T04:24:27;101840.69;;;3.15;80.64
53506;BME280;39388;50.936;6.848;2023-02-16T04:26:58;101834.66;;;3.13;80.80
53506;BME280;39388;50.936;6.848;2023-02-16T04:29:28;101845.69;;;3.14;80.86
53506;BME280;39388;50.936;6.848;2023-02-16T04:31:59;101827.47;;;3.04;80.99
53506;BME280;39388;50.936;6.848;2023-02-16T04:34:29;101832.84;;;3.11;81.22
53506;BME280;39388;50.936;6.848;2023-02-16T04:36:59;101832.56;;;3.04;80.88
53506;BME280;39388;50.936;6.848;2023-02-16T04:39:31;101842.16;;;3.10;80.90
53506;BME280;39388;50.936;6.848;2023-02-16T04:42:02;101840.19;;;3.04;80.86
53506;BME280;39388;50.936;6.848;2023-02-16T04:44:33;101839.34;;;3.04;80.95
53506;BME280;39388;50.936;6.848;2023-02-16T04:47:04;101834.97;;;3.01;80.89
53506;BME280;39388;50.936;6.848;2023-02-16T04:49:34;101842.75;;;3.04;81.16
53506;BME280;39388;50.936;6.848;2023-02-16T04:52:05;101838.25;;;2.99;80.89
53506;BME280;39388;50.936;6.848;2023-02-16T04:54:35;101840.88;;;3.00;81.37
53506;BME280;39388;50.936;6.848;2023-02-16T04:57:06;101839.06;;;2.98;81.42
53506;BME280;39388;50.936;6.848;2023-02-16T04:59:36;101845.91;;;2.99;81.38
53506;BME280;39388;50.936;6.848;2023-02-16T05:02:07;101834.47;;;2.90;81.29
53506;BME280;39388;50.936;6.848;2023-02-16T05:04:37;101832.03;;;2.92;81.64
53506;BME280;39388;50.936;6.848;2023-02-16T05:07:08;101836.47;;;2.96;81.32
53506;BME280;39388;50.936;6.848;2023-02-16T05:09:38;101826.28;;;2.96;81.71
53506;BME280;39388;50.936;6.848;2023-02-16T05:12:09;101833.03;;;2.96;81.79
53506;BME280;39388;50.936;6.848;2023-02-16T05:14:58;101827.88;;;2.94;81.29
53506;BME280;39388;50.936;6.848;2023-02-16T05:17:29;101818.19;;;2.87;81.31
53506;BME280;39388;50.936;6.848;2023-02-16T05:19:59;101834.47;;;2.90;81.99
53506;BME280;39388;50.936;6.848;2023-02-16T05:22:30;101833.63;;;2.90;81.67
53506;BME280;39388;50.936;6.848;2023-02-16T05:27:37;101835.38;;;2.91;82.03
53506;BME280;39388;50.936;6.848;2023-02-16T05:30:08;101834.47;;;2.90;82.17
53506;BME280;39388;50.936;6.848;2023-02-16T05:32:38;101835.22;;;2.88;81.88
53506;BME280;39388;50.936;6.848;2023-02-16T05:35:08;101830.88;;;2.85;82.08
53506;BME280;39388;50.936;6.848;2023-02-16T05:37:39;101832.63;;;2.86;82.06
53506;BME280;39388;50.936;6.848;2023-02-16T05:40:10;101838.56;;;2.87;82.38
53506;BME280;39388;50.936;6.848;2023-02-16T05:42:40;101813.44;;;2.75;82.16
53506;BME280;39388;50.936;6.848;2023-02-16T05:45:10;101833.28;;;2.82;82.54
53506;BME280;39388;50.936;6.848;2023-02-16T05:47:41;101837.72;;;2.86;82.35
53506;BME280;39388;50.936;6.848;2023-02-16T05:50:11;101839.47;;;2.87;82.76
53506;BME280;39388;50.936;6.848;2023-02-16T05:52:42;101820.16;;;2.73;82.60
53506;BME280;39388;50.936;6.848;2023-02-16T05:55:12;101840.19;;;2.85;82.46
53506;BME280;39388;50.936;6.848;2023-02-16T05:57:43;101835.88;;;2.84;82.52
53506;BME280;39388;50.936;6.848;2023-02-16T06:00:13;101841.13;;;2.87;82.40
53506;BME280;39388;50.936;6.848;2023-02-16T06:02:44;101834.28;;;2.86;82.82
53506;BME280;39388;50.936;6.848;2023-02-16T06:05:14;101823.75;;;2.78;82.44
53506;BME280;39388;50.936;6.848;2023-02-16T06:07:45;101841.91;;;2.86;82.51
53506;BME280;39388;50.936;6.848;2023-02-16T06:10:16;101837.72;;;2.86;82.51
53506;BME280;39388;50.936;6.848;2023-02-16T06:12:46;101832.41;;;2.82;82.36
53506;BME280;39388;50.936;6.848;2023-02-16T06:15:16;101837.78;;;2.88;82.44
53506;BME280;39388;50.936;6.848;2023-02-16T06:17:47;101838.72;;;2.90;82.41
53506;BME280;39388;50.936;6.848;2023-02-16T06:20:17;101820.59;;;2.84;82.73
53506;BME280;39388;50.936;6.848;2023-02-16T06:22:48;101834.72;;;2.95;82.55
53506;BME280;39388;50.936;6.848;2023-02-16T06:25:18;101833.16;;;2.99;82.56
53506;BME280;39388;50.936;6.848;2023-02-16T06:27:49;101841.81;;;3.02;82.94
53506;BME280;39388;50.936;6.848;2023-02-16T06:30:23;101844.69;;;3.10;82.54
53506;BME280;39388;50.936;6.848;2023-02-16T06:32:54;101847.44;;;3.15;82.56
53506;BME280;39388;50.936;6.848;2023-02-16T06:35:24;101850.19;;;3.19;82.55
53506;BME280;39388;50.936;6.848;2023-02-16T06:37:55;101846.91;;;3.22;82.62
53506;BME280;39388;50.936;6.848;2023-02-16T06:40:25;101841.81;;;3.22;82.38
53506;BME280;39388;50.936;6.848;2023-02-16T06:42:55;101843.00;;;3.30;82.22
53506;BME280;39388;50.936;6.848;2023-02-16T06:45:26;101843.19;;;3.35;82.43
53506;BME280;39388;50.936;6.848;2023-02-16T06:47:57;101835.44;;;3.32;82.44
53506;BME280;39388;50.936;6.848;2023-02-16T06:50:27;101844.41;;;3.43;82.21
53506;BME280;39388;50.936;6.848;2023-02-16T06:52:57;101841.13;;;3.46;82.08
53506;BME280;39388;50.936;6.848;2023-02-16T06:55:28;101845.69;;;3.53;82.11
53506;BME280;39388;50.936;6.848;2023-02-16T06:58:03;101839.97;;;3.59;82.17
53506;BME280;39388;50.936;6.848;2023-02-16T07:00:34;101837.53;;;3.62;81.70
53506;BME280;39388;50.936;6.848;2023-02-16T07:03:04;101838.38;;;3.61;82.10
53506;BME280;39388;50.936;6.848;2023-02-16T07:05:35;101859.91;;;3.67;81.49
53506;BME280;39388;50.936;6.848;2023-02-16T07:08:05;101869.53;;;3.75;81.58
53506;BME280;39388;50.936;6.848;2023-02-16T07:10:35;101861.25;;;3.80;81.58
53506;BME280;39388;50.936;6.848;2023-02-16T07:13:06;101855.47;;;3.84;81.55
53506;BME280;39388;50.936;6.848;2023-02-16T07:15:37;101859.19;;;3.93;81.60
53506;BME280;39388;50.936;6.848;2023-02-16T07:18:07;101849.06;;;3.94;81.74
53506;BME280;39388;50.936;6.848;2023-02-16T07:20:37;101863.94;;;4.05;81.54
53506;BME280;39388;50.936;6.848;2023-02-16T07:23:08;101858.25;;;4.12;81.35
53506;BME280;39388;50.936;6.848;2023-02-16T07:25:38;101850.69;;;4.13;81.08
53506;BME280;39388;50.936;6.848;2023-02-16T07:28:09;101863.69;;;4.20;81.14
53506;BME280;39388;50.936;6.848;2023-02-16T07:30:39;101875.09;;;4.28;81.23
53506;BME280;39388;50.936;6.848;2023-02-16T07:33:11;101866.63;;;4.29;80.96
53506;BME280;39388;50.936;6.848;2023-02-16T07:35:43;101852.88;;;4.25;81.11
53506;BME280;39388;50.936;6.848;2023-02-16T07:38:13;101846.06;;;4.26;81.01
53506;BME280;39388;50.936;6.848;2023-02-16T07:40:44;101854.78;;;4.31;81.12
53506;BME280;39388;50.936;6.848;2023-02-16T07:43:14;101853.84;;;4.29;81.04
53506;BME280;39388;50.936;6.848;2023-02-16T07:45:44;101855.59;;;4.30;80.89
53506;BME280;39388;50.936;6.848;2023-02-16T07:48:15;101864.22;;;4.34;80.88
53506;BME280;39388;50.936;6.848;2023-02-16T07:50:45;101867.03;;;4.40;80.76
53506;BME280;39388;50.936;6.848;2023-02-16T07:53:16;101856.91;;;4.43;81.31
53506;BME280;39388;50.936;6.848;2023-02-16T07:55:47;101860.66;;;4.51;80.89
53506;BME280;39388;50.936;6.848;2023-02-16T07:58:17;101858.28;;;4.56;80.37
53506;BME280;39388;50.936;6.848;2023-02-16T08:01:08;101839.34;;;4.51;80.34
53506;BME280;39388;50.936;6.848;2023-02-16T08:03:39;101854.44;;;4.67;80.38
53506;BME280;39388;50.936;6.848;2023-02-16T08:06:10;101860.72;;;4.75;80.71
53506;BME280;39388;50.936;6.848;2023-02-16T08:08:40;101854.91;;;4.80;80.37
53506;BME280;39388;50.936;6.848;2023-02-16T08:13:43;101832.91;;;4.83;80.34
53506;BME280;39388;50.936;6.848;2023-02-16T08:16:16;101851.97;;;4.93;79.70
53506;BME280;39388;50.936;6.848;2023-02-16T08:18:48;101849.53;;;4.96;80.04
53506;BME280;39388;50.936;6.848;2023-02-16T08:21:22;101853.78;;;4.96;80.50
53506;BME280;39388;50.936;6.848;2023-02-16T08:23:55;101861.84;;;5.06;80.09
53506;BME280;39388;50.936;6.848;2023-02-16T08:26:29;101861.94;;;5.10;80.12
53506;BME280;39388;50.936;6.848;2023-02-16T08:29:02;101859.41;;;5.10;79.64
53506;BME280;39388;50.936;6.848;2023-02-16T08:31:33;101839.72;;;5.07;80.08
53506;BME280;39388;50.936;6.848;2023-02-16T08:34:05;101850.94;;;5.12;79.93
53506;BME280;39388;50.936;6.848;2023-02-16T08:36:37;101848.47;;;5.14;79.44
53506;BME280;39388;50.936;6.848;2023-02-16T08:39:11;101842.69;;;5.19;80.29
53506;BME280;39388;50.936;6.848;2023-02-16T08:41:44;101835.97;;;5.21;80.35
53506;BME280;39388;50.936;6.848;2023-02-16T08:44:16;101843.19;;;5.33;79.96
53506;BME280;39388;50.936;6.848;2023-02-16T08:46:49;101843.44;;;5.41;80.00
53506;BME280;39388;50.936;6.848;2023-02-16T08:49:21;101839.47;;;5.49;79.84
53506;BME280;39388;50.936;6.848;2023-02-16T08:51:55;101844.06;;;5.60;80.11
53506;BME280;39388;50.936;6.848;2023-02-16T08:54:26;101848.59;;;5.67;78.89
53506;BME280;39388;50.936;6.848;2023-02-16T08:56:59;101851.41;;;5.75;79.44
53506;BME280;39388;50.936;6.848;2023-02-16T08:59:31;101850.69;;;5.79;78.90
53506;BME280;39388;50.936;6.848;2023-02-16T09:02:03;101850.94;;;5.87;78.54
53506;BME280;39388;50.936;6.848;2023-02-16T09:04:34;101851.91;;;5.90;78.31
53506;BME280;39388;50.936;6.848;2023-02-16T09:07:05;101861.63;;;6.01;78.35
53506;BME280;39388;50.936;6.848;2023-02-16T09:09:36;101856.41;;;5.97;77.79
53506;BME280;39388;50.936;6.848;2023-02-16T09:12:06;101859.75;;;5.95;78.56
53506;BME280;39388;50.936;6.848;2023-02-16T09:14:37;101858.72;;;5.90;78.31
53506;BME280;39388;50.936;6.848;2023-02-16T09:17:07;101865.63;;;5.92;78.10
53506;BME280;39388;50.936;6.848;2023-02-16T09:19:38;101861.31;;;5.91;78.17
53506;BME280;39388;50.936;6.848;2023-02-16T09:22:09;101857.91;;;5.91;78.66
53506;BME280;39388;50.936;6.848;2023-02-16T09:24:39;101860.97;;;6.06;77.79
53506;BME280;39388;50.936;6.848;2023-02-16T09:27:10;101863.94;;;6.20;78.02
53506;BME280;39388;50.936;6.848;2023-02-16T09:29:40;101860.19;;;6.36;77.32
53506;BME280;39388;50.936;6.848;2023-02-16T09:32:11;101853.94;;;6.55;77.38
53506;BME280;39388;50.936;6.848;2023-02-16T09:34:41;101849.97;;;6.67;77.15
53506;BME280;39388;50.936;6.848;2023-02-16T09:37:13;101843.53;;;6.80;77.07
53506;BME280;39388;50.936;6.848;2023-02-16T09:39:44;101854.34;;;7.00;76.95
53506;BME280;39388;50.936;6.848;2023-02-16T09:45:20;101839.94;;;7.35;76.21
53506;BME280;39388;50.936;6.848;2023-02-16T09:47:51;101854.13;;;7.55;76.10
53506;BME280;39388;50.936;6.848;2023-02-16T09:50:26;101862.13;;;7.65;75.56
53506;BME280;39388;50.936;6.848;2023-02-16T09:53:00;101874.44;;;7.79;75.53
53506;BME280;39388;50.936;6.848;2023-02-16T09:56:03;101876.41;;;7.89;75.49
53506;BME280;39388;50.936;6.848;2023-02-16T09:58:50;101875.84;;;8.01;74.94
53506;BME280;39388;50.936;6.848;2023-02-16T10:07:14;101884.75;;;8.16;74.99
53506;BME280;39388;50.936;6.848;2023-02-16T10:09:51;101884.88;;;8.22;74.97
53506;BME280;39388;50.936;6.848;2023-02-16T10:12:28;101884.16;;;8.27;74.92
53506;BME280;39388;50.936;6.848;2023-02-16T10:15:25;101886.13;;;8.38;74.90
53506;BME280;39388;50.936;6.848;2023-02-16T10:18:01;101889.66;;;8.43;74.40
53506;BME280;39388;50.936;6.848;2023-02-16T10:20:43;101885.47;;;8.47;74.39
53506;BME280;39388;50.936;6.848;2023-02-16T10:28:54;101881.28;;;8.52;74.73
53506;BME280;39388;50.936;6.848;2023-02-16T10:31:37;101880.53;;;8.56;74.43
53506;BME280;39388;50.936;6.848;2023-02-16T10:43:03;101890.72;;;8.53;74.23
53506;BME280;39388;50.936;6.848;2023-02-16T10:45:48;101876.13;;;8.50;74.39
53506;BME280;39388;50.936;6.848;2023-02-16T10:48:20;101884.09;;;8.61;74.31
53506;BME280;39388;50.936;6.848;2023-02-16T10:51:15;101884.28;;;8.72;74.37
53506;BME280;39388;50.936;6.848;2023-02-16T10:53:50;101876.81;;;8.83;74.18
53506;BME280;39388;50.936;6.848;2023-02-16T11:01:56;101873.75;;;9.01;73.59
53506;BME280;39388;50.936;6.848;2023-02-16T11:04:41;101869.44;;;9.00;73.99
53506;BME280;39388;50.936;6.848;2023-02-16T11:07:20;101854.00;;;9.00;73.82
53506;BME280;39388;50.936;6.848;2023-02-16T11:09:54;101863.50;;;9.02;73.87
53506;BME280;39388;50.936;6.848;2023-02-16T11:23:29;101836.34;;;9.17;73.35
53506;BME280;39388;50.936;6.848;2023-02-16T11:28:40;101830.50;;;9.26;73.35
53506;BME280;39388;50.936;6.848;2023-02-16T11:34:03;101841.94;;;9.42;72.97
53506;BME280;39388;50.936;6.848;2023-02-16T11:36:37;101835.19;;;9.50;72.74
53506;BME280;39388;50.936;6.848;2023-02-16T11:39:22;101833.66;;;9.58;72.79
53506;BME280;39388;50.936;6.848;2023-02-16T11:41:58;101817.31;;;9.58;72.99
53506;BME280;39388;50.936;6.848;2023-02-16T11:44:36;101813.19;;;9.68;73.10
53506;BME280;39388;50.936;6.848;2023-02-16T11:47:28;101816.72;;;9.74;72.84
53506;BME280;39388;50.936;6.848;2023-02-16T11:50:25;101806.53;;;9.80;72.85
53506;BME280;39388;50.936;6.848;2023-02-16T11:53:22;101803.22;;;9.88;72.48
53506;BME280;39388;50.936;6.848;2023-02-16T12:15:28;101781.81;;;9.90;73.41
53506;BME280;39388;50.936;6.848;2023-02-16T12:23:44;101780.16;;;9.94;73.34
53506;BME280;39388;50.936;6.848;2023-02-16T12:29:11;101784.47;;;9.96;73.52
53506;BME280;39388;50.936;6.848;2023-02-16T12:32:00;101778.44;;;9.94;73.59
53506;BME280;39388;50.936;6.848;2023-02-16T12:49:10;101766.47;;;9.98;74.33
53506;BME280;39388;50.936;6.848;2023-02-16T12:52:10;101766.56;;;10.04;74.45
53506;BME280;39388;50.936;6.848;2023-02-16T12:54:43;101752.88;;;10.08;74.19
53506;BME280;39388;50.936;6.848;2023-02-16T12:57:19;101756.28;;;10.07;74.45
53506;BME280;39388;50.936;6.848;2023-02-16T13:02:56;101733.16;;;10.10;74.29
53506;BME280;39388;50.936;6.848;2023-02-16T13:05:36;101738.34;;;10.15;74.52
53506;BME280;39388;50.936;6.848;2023-02-16T13:08:21;101738.41;;;10.20;74.76
53506;BME280;39388;50.936;6.848;2023-02-16T13:11:01;101726.38;;;10.20;74.14
53506;BME280;39388;50.936;6.848;2023-02-16T13:13:34;101731.63;;;10.28;74.04
53506;BME280;39388;50.936;6.848;2023-02-16T13:16:45;101742.94;;;10.36;74.01
53506;BME280;39388;50.936;6.848;2023-02-16T13:19:18;101742.19;;;10.47;73.96
53506;BME280;39388;50.936;6.848;2023-02-16T13:43:53;101700.69;;;11.07;75.28
53506;BME280;39388;50.936;6.848;2023-02-16T13:46:36;101703.28;;;11.11;75.12
53506;BME280;39388;50.936;6.848;2023-02-16T13:49:28;101699.94;;;11.22;74.98
53506;BME280;39388;50.936;6.848;2023-02-16T13:52:00;101692.22;;;11.25;75.15
53506;BME280;39388;50.936;6.848;2023-02-16T13:54:39;101682.81;;;11.31;74.74
53506;BME280;39388;50.936;6.848;2023-02-16T13:57:13;101669.06;;;11.36;75.00
53506;BME280;39388;50.936;6.848;2023-02-16T13:59:49;101661.34;;;11.42;74.97
53506;BME280;39388;50.936;6.848;2023-02-16T14:05:39;101654.53;;;11.52;74.50
53506;BME280;39388;50.936;6.848;2023-02-16T14:08:28;101656.28;;;11.57;74.65
53506;BME280;39388;50.936;6.848;2023-02-16T14:11:05;101647.72;;;11.61;74.43
53506;BME280;39388;50.936;6.848;2023-02-16T14:16:10;101644.38;;;11.76;73.54
53506;BME280;39388;50.936;6.848;2023-02-16T14:18:43;101643.53;;;11.79;73.48
53506;BME280;39388;50.936;6.848;2023-02-16T14:21:38;101640.94;;;11.81;73.37
53506;BME280;39388;50.936;6.848;2023-02-16T14:24:32;101634.09;;;11.84;73.07
53506;BME280;39388;50.936;6.848;2023-02-16T14:27:08;101634.09;;;11.92;72.64
53506;BME280;39388;50.936;6.848;2023-02-16T14:29:41;101636.75;;;12.03;72.36
53506;BME280;39388;50.936;6.848;2023-02-16T14:32:28;101633.34;;;12.12;71.69
53506;BME280;39388;50.936;6.848;2023-02-16T14:35:15;101639.41;;;12.21;71.70
53506;BME280;39388;50.936;6.848;2023-02-16T14:37:57;101635.97;;;12.25;71.43
53506;BME280;39388;50.936;6.848;2023-02-16T14:51:42;101629.94;;;12.30;69.65
53506;BME280;39388;50.936;6.848;2023-02-16T14:57:19;101629.94;;;12.23;69.29
53506;BME280;39388;50.936;6.848;2023-02-16T15:00:00;101631.66;;;12.24;69.65
53506;BME280;39388;50.936;6.848;2023-02-16T15:02:34;101629.91;;;12.25;69.28
53506;BME280;39388;50.936;6.848;2023-02-16T15:05:20;101628.22;;;12.27;69.02
53506;BME280;39388;50.936;6.848;2023-02-16T15:07:53;101610.97;;;12.21;68.87
53506;BME280;39388;50.936;6.848;2023-02-16T15:10:31;101620.44;;;12.27;68.58
53506;BME280;39388;50.936;6.848;2023-02-16T15:13:01;101618.72;;;12.28;68.41
53506;BME280;39388;50.936;6.848;2023-02-16T15:15:46;101614.44;;;12.28;68.62
53506;BME280;39388;50.936;6.848;2023-02-16T15:18:21;101614.41;;;12.25;68.56
53506;BME280;39388;50.936;6.848;2023-02-16T15:20:54;101616.13;;;12.28;68.48
53506;BME280;39388;50.936;6.848;2023-02-16T15:23:29;101604.94;;;12.22;68.46
53506;BME280;39388;50.936;6.848;2023-02-16T15:26:03;101608.38;;;12.21;68.38
53506;BME280;39388;50.936;6.848;2023-02-16T15:28:35;101604.06;;;12.23;68.56
53506;BME280;39388;50.936;6.848;2023-02-16T15:31:13;101590.28;;;12.21;68.51
53506;BME280;39388;50.936;6.848;2023-02-16T15:33:59;101601.50;;;12.28;68.46
53506;BME280;39388;50.936;6.848;2023-02-16T15:36:33;101576.47;;;12.21;68.06
53506;BME280;39388;50.936;6.848;2023-02-16T15:39:23;101585.09;;;12.26;67.83
53506;BME280;39388;50.936;6.848;2023-02-16T15:42:10;101579.91;;;12.23;68.26
53506;BME280;39388;50.936;6.848;2023-02-16T15:44:45;101584.22;;;12.21;68.03
53506;BME280;39388;50.936;6.848;2023-02-16T15:47:24;101577.34;;;12.20;68.07
53506;BME280;39388;50.936;6.848;2023-02-16T15:49:55;101585.06;;;12.15;68.16
53506;BME280;39388;50.936;6.848;2023-02-16T15:52:33;101589.38;;;12.13;68.31
53506;BME280;39388;50.936;6.848;2023-02-16T15:55:06;101596.28;;;12.14;67.97
53506;BME280;39388;50.936;6.848;2023-02-16T15:57:38;101586.78;;;12.08;67.78
53506;BME280;39388;50.936;6.848;2023-02-16T16:00:16;101603.16;;;12.10;67.76
53506;BME280;39388;50.936;6.848;2023-02-16T16:02:52;101591.06;;;12.06;67.66
53506;BME280;39388;50.936;6.848;2023-02-16T16:05:28;101602.31;;;12.12;67.73
53506;BME280;39388;50.936;6.848;2023-02-16T16:08:02;101601.47;;;12.11;67.88
53506;BME280;39388;50.936;6.848;2023-02-16T16:10:34;101610.06;;;12.12;68.00
53506;BME280;39388;50.936;6.848;2023-02-16T16:13:17;101601.47;;;12.11;67.45
53506;BME280;39388;50.936;6.848;2023-02-16T16:15:48;101600.59;;;12.09;67.70
53506;BME280;39388;50.936;6.848;2023-02-16T16:23:58;101598.84;;;11.99;68.11
53506;BME280;39388;50.936;6.848;2023-02-16T16:26:33;101605.72;;;12.03;68.15
53506;BME280;39388;50.936;6.848;2023-02-16T16:29:27;101606.59;;;12.00;67.96